James L. Oberstar — WDC6154 — position and weather

sailwx.info

Track history (hours):
 
Tides and Currents Weather Stations Pressure Air Temp Water Temp Dewpoint Dewpoint Depression Visibility Wind Speed Wind Dir Waves Ship Positions

James L. Oberstar

Owner: Destin Trading Corporation, harahan, LA. More information available from US FCC via Universal Licensing System and Coast Guard Vessel Documentation Center.

Last reported at 2015-Aug-29 11:26 UTC. Time now 2015-Sep-01 03:56 UTC.
Position N 29°57' W 090°23'.

Length 26 m.

Type: Towing. MMSI: 367052120.

Date/timePositionNaut miles runAvg speedWind from/ knotsBaromVisibWave heightAir tempDewpointWater temp
2015-Aug-29 11:26N 29°57' W 090°23'0 0.0
2015-Aug-29 10:29N 29°57' W 090°23'16 0.8
2015-Aug-28 14:12N 29°55' W 090°06'0 0.8
2015-Aug-28 13:33N 29°55' W 090°05'3 2.7
2015-Aug-28 12:33N 29°52' W 090°04'1 1.0
2015-Aug-28 11:33N 29°51' W 090°04'1 0.6
2015-Aug-28 10:31N 29°52' W 090°04'3 3.2
2015-Aug-28 09:32N 29°55' W 090°05'0 0.3
2015-Aug-28 08:30N 29°55' W 090°05'3 0.2
2015-Aug-27 20:26N 29°55' W 090°08'2 0.1
2015-Aug-26 10:21N 29°57' W 090°10'5 0.1
2015-Aug-24 16:08N 29°55' W 090°05'4 0.9
2015-Aug-24 11:32N 29°51' W 090°04'0 0.0
2015-Aug-24 09:33N 29°51' W 090°04'0 0.0
2015-Aug-24 07:29N 29°51' W 090°04'0 0.0
2015-Aug-24 06:32N 29°51' W 090°04'0 0.0
2015-Aug-24 05:30N 29°51' W 090°04'0 0.2
2015-Aug-24 04:30N 29°51' W 090°04'3 2.9
2015-Aug-24 03:27N 29°48' W 090°04'26 3.8
2015-Aug-23 20:31N 29°34' W 090°30'5 4.8
2015-Aug-23 19:33N 29°35' W 090°35'4 3.7
2015-Aug-23 18:33N 29°36' W 090°39'3 3.1
2015-Aug-23 17:33N 29°36' W 090°43'3 3.3
2015-Aug-23 16:33N 29°34' W 090°45'1 1.4
2015-Aug-23 15:33N 29°32' W 090°46'4 4.4
2015-Aug-23 14:33N 29°32' W 090°51'7 5.8
2015-Aug-23 13:21N 29°35' W 090°58'  
Track history (hours):
 
Tides and Currents Weather Stations Pressure Air Temp Water Temp Dewpoint Dewpoint Depression Visibility Wind Speed Wind Dir Waves Ship Positions

James L. Oberstar

Owner: Destin Trading Corporation, harahan, LA. More information available from US FCC via Universal Licensing System and Coast Guard Vessel Documentation Center.

Last reported at 2015-Aug-29 11:26 UTC. Time now 2015-Sep-01 03:56 UTC.
Position N 29°57' W 090°23'.

Length 26 m.

Type: Towing. MMSI: 367052120.

Date/timePositionNaut miles runAvg speedWind from/ knotsBaromVisibWave heightAir tempDewpointWater temp
2015-Aug-29 11:26N 29°57' W 090°23'0 0.0
2015-Aug-29 10:29N 29°57' W 090°23'16 0.8
2015-Aug-28 14:12N 29°55' W 090°06'0 0.8
2015-Aug-28 13:33N 29°55' W 090°05'3 2.7
2015-Aug-28 12:33N 29°52' W 090°04'1 1.0
2015-Aug-28 11:33N 29°51' W 090°04'1 0.6
2015-Aug-28 10:31N 29°52' W 090°04'3 3.2
2015-Aug-28 09:32N 29°55' W 090°05'0 0.3
2015-Aug-28 08:30N 29°55' W 090°05'3 0.2
2015-Aug-27 20:26N 29°55' W 090°08'2 0.1
2015-Aug-26 10:21N 29°57' W 090°10'5 0.1
2015-Aug-24 16:08N 29°55' W 090°05'4 0.9
2015-Aug-24 11:32N 29°51' W 090°04'0 0.0
2015-Aug-24 09:33N 29°51' W 090°04'0 0.0
2015-Aug-24 07:29N 29°51' W 090°04'0 0.0
2015-Aug-24 06:32N 29°51' W 090°04'0 0.0
2015-Aug-24 05:30N 29°51' W 090°04'0 0.2
2015-Aug-24 04:30N 29°51' W 090°04'3 2.9
2015-Aug-24 03:27N 29°48' W 090°04'26 3.8
2015-Aug-23 20:31N 29°34' W 090°30'5 4.8
2015-Aug-23 19:33N 29°35' W 090°35'4 3.7
2015-Aug-23 18:33N 29°36' W 090°39'3 3.1
2015-Aug-23 17:33N 29°36' W 090°43'3 3.3
2015-Aug-23 16:33N 29°34' W 090°45'1 1.4
2015-Aug-23 15:33N 29°32' W 090°46'4 4.4
2015-Aug-23 14:33N 29°32' W 090°51'7 5.8
2015-Aug-23 13:21N 29°35' W 090°58'  

Dump ship's entire track history